Time;durP1;ratioP1;P1;durP2;ratioP2;P2;SDS_P1;SDS_P2;PMS_P1;PMS_P2;Temp;Humidity;BMP_temperature;BMP_pressure;BME280_temperature;BME280_humidity;BME280_pressure;Samples;Min_cycle;Max_cycle;Signal;HPM_P1;HPM_P2
2024/01/22 00:00:15;;;;;;;4.05;2.35;;;;;;;;;;4996109;28;20061;-60
2024/01/22 00:02:42;;;;;;;5.57;2.42;;;;;;;;;;4993914;28;20042;-60
2024/01/22 00:05:10;;;;;;;6.70;2.63;;;;;;;;;;4993116;28;20047;-60
2024/01/22 00:07:36;;;;;;;5.35;2.60;;;;;;;;;;4998259;28;20038;-61
2024/01/22 00:10:06;;;;;;;6.00;2.95;;;;;;;;;;4996489;28;20050;-61
2024/01/22 00:12:32;;;;;;;4.80;2.55;;;;;;;;;;4993454;28;20514;-60
2024/01/22 00:14:58;;;;;;;5.18;2.78;;;;;;;;;;4992640;28;20053;-62
2024/01/22 00:17:24;;;;;;;5.65;2.67;;;;;;;;;;4998600;28;20038;-61
2024/01/22 00:19:50;;;;;;;6.95;2.97;;;;;;;;;;4991763;28;20049;-61
2024/01/22 00:22:17;;;;;;;6.30;2.63;;;;;;;;;;4997642;28;20045;-62
2024/01/22 00:24:43;;;;;;;7.35;2.70;;;;;;;;;;4997976;28;20049;-61
2024/01/22 00:27:09;;;;;;;4.05;2.58;;;;;;;;;;4997127;28;20047;-61
2024/01/22 00:29:35;;;;;;;4.32;2.58;;;;;;;;;;4989784;28;20057;-61
2024/01/22 00:32:01;;;;;;;5.07;2.90;;;;;;;;;;4990217;28;20046;-61
2024/01/22 00:34:27;;;;;;;7.20;2.80;;;;;;;;;;4990133;28;20030;-60
2024/01/22 00:36:53;;;;;;;6.78;2.75;;;;;;;;;;4992106;28;20046;-62
2024/01/22 00:39:19;;;;;;;4.13;2.50;;;;;;;;;;4991694;28;20510;-61
2024/01/22 00:41:45;;;;;;;8.10;2.92;;;;;;;;;;4990515;28;20030;-61
2024/01/22 00:44:12;;;;;;;5.55;2.40;;;;;;;;;;5002882;28;20057;-62
2024/01/22 00:46:38;;;;;;;5.40;2.80;;;;;;;;;;4995036;28;20049;-62
2024/01/22 00:49:04;;;;;;;7.95;2.92;;;;;;;;;;4992216;28;20038;-62
2024/01/22 00:51:30;;;;;;;6.72;3.17;;;;;;;;;;4985330;28;20053;-62
2024/01/22 00:53:56;;;;;;;6.53;3.10;;;;;;;;;;4995135;28;20030;-62
2024/01/22 00:56:23;;;;;;;5.20;2.67;;;;;;;;;;4991175;28;20042;-62
2024/01/22 00:58:49;;;;;;;5.57;2.80;;;;;;;;;;4994797;28;20064;-62
2024/01/22 01:01:15;;;;;;;7.03;2.50;;;;;;;;;;4996220;28;20054;-62
2024/01/22 01:03:41;;;;;;;4.55;2.60;;;;;;;;;;4997545;28;20528;-62
2024/01/22 01:06:07;;;;;;;7.97;2.83;;;;;;;;;;4999219;28;20116;-61
2024/01/22 01:08:33;;;;;;;5.03;2.67;;;;;;;;;;4989724;28;20529;-61
2024/01/22 01:10:59;;;;;;;4.35;2.63;;;;;;;;;;4989527;28;20446;-61
2024/01/22 01:13:26;;;;;;;5.75;2.45;;;;;;;;;;4992501;28;20034;-61
2024/01/22 01:15:52;;;;;;;5.18;2.53;;;;;;;;;;5001879;28;20509;-62
2024/01/22 01:18:18;;;;;;;7.45;3.05;;;;;;;;;;4992115;28;20038;-61
2024/01/22 01:20:44;;;;;;;5.47;2.97;;;;;;;;;;4989861;28;20038;-62
2024/01/22 01:23:10;;;;;;;7.22;2.92;;;;;;;;;;4991235;28;20046;-61
2024/01/22 01:25:37;;;;;;;4.47;2.63;;;;;;;;;;4990451;28;20030;-62
2024/01/22 01:28:03;;;;;;;8.63;2.72;;;;;;;;;;4990444;28;20057;-62
2024/01/22 01:30:29;;;;;;;5.00;2.88;;;;;;;;;;4990847;28;20053;-62
2024/01/22 01:32:55;;;;;;;5.10;2.30;;;;;;;;;;5012280;28;20041;-62
2024/01/22 01:35:21;;;;;;;8.05;2.90;;;;;;;;;;4991980;28;20046;-62
2024/01/22 01:37:48;;;;;;;5.75;2.65;;;;;;;;;;4991239;28;20046;-62
2024/01/22 01:40:15;;;;;;;3.85;2.30;;;;;;;;;;4989264;28;20045;-62
2024/01/22 01:42:43;;;;;;;8.02;2.70;;;;;;;;;;4990019;28;20042;-62
2024/01/22 01:45:12;;;;;;;5.07;2.97;;;;;;;;;;5010932;28;20033;-61
2024/01/22 01:47:39;;;;;;;4.80;2.58;;;;;;;;;;4993439;28;20038;-61
2024/01/22 01:50:06;;;;;;;6.95;2.67;;;;;;;;;;4993115;28;20038;-61
2024/01/22 01:52:32;;;;;;;4.78;2.90;;;;;;;;;;4994206;28;20046;-61
2024/01/22 01:55:00;;;;;;;7.10;2.85;;;;;;;;;;4994014;28;20038;-61
2024/01/22 01:57:26;;;;;;;4.50;2.75;;;;;;;;;;4989641;28;20454;-62
2024/01/22 01:59:52;;;;;;;5.85;3.30;;;;;;;;;;4995085;28;20045;-61
2024/01/22 02:02:20;;;;;;;4.60;2.45;;;;;;;;;;4990222;28;20043;-61
2024/01/22 02:04:46;;;;;;;5.15;2.95;;;;;;;;;;4990562;28;20042;-62
2024/01/22 02:07:12;;;;;;;4.35;2.42;;;;;;;;;;4995772;28;20042;-62
2024/01/22 02:09:48;;;;;;;5.43;3.20;;;;;;;;;;4995197;28;20038;-61
2024/01/22 02:12:16;;;;;;;6.28;2.70;;;;;;;;;;4990652;28;20054;-61
2024/01/22 02:14:42;;;;;;;5.38;2.95;;;;;;;;;;4995055;28;20054;-60
2024/01/22 02:17:08;;;;;;;4.80;3.13;;;;;;;;;;4991144;28;20055;-61
2024/01/22 02:19:34;;;;;;;7.20;3.42;;;;;;;;;;4990988;28;20046;-62
2024/01/22 02:22:00;;;;;;;6.88;3.20;;;;;;;;;;4998240;28;20045;-61
2024/01/22 02:24:26;;;;;;;5.40;2.83;;;;;;;;;;4988088;28;20072;-60
2024/01/22 02:26:52;;;;;;;4.38;2.80;;;;;;;;;;4990488;28;20042;-61
2024/01/22 02:29:18;;;;;;;5.80;2.83;;;;;;;;;;4989887;28;20537;-59
2024/01/22 02:31:48;;;;;;;4.40;2.67;;;;;;;;;;4991693;28;20057;-60
2024/01/22 02:34:15;;;;;;;5.82;2.83;;;;;;;;;;4988769;28;20049;-61
2024/01/22 02:36:41;;;;;;;5.88;2.70;;;;;;;;;;4990189;28;20034;-61
2024/01/22 02:39:07;;;;;;;4.05;2.55;;;;;;;;;;4996818;28;20494;-62
2024/01/22 02:41:33;;;;;;;6.07;3.03;;;;;;;;;;4992083;28;20042;-62
2024/01/22 02:43:59;;;;;;;3.70;2.28;;;;;;;;;;4992823;28;20053;-61
2024/01/22 02:46:25;;;;;;;5.00;2.90;;;;;;;;;;4990851;28;20038;-61
2024/01/22 02:48:51;;;;;;;4.55;2.70;;;;;;;;;;4990407;28;20038;-62
2024/01/22 02:51:18;;;;;;;5.25;2.67;;;;;;;;;;4990784;28;20051;-62
2024/01/22 02:53:45;;;;;;;4.80;3.00;;;;;;;;;;4989484;28;20045;-61
2024/01/22 02:56:17;;;;;;;5.40;2.88;;;;;;;;;;4989069;28;20410;-61
2024/01/22 02:58:43;;;;;;;5.68;2.90;;;;;;;;;;4993551;28;20038;-60
2024/01/22 03:01:10;;;;;;;5.93;2.80;;;;;;;;;;4995106;28;20046;-60
2024/01/22 03:03:36;;;;;;;5.13;2.72;;;;;;;;;;4995287;28;20533;-61
2024/01/22 03:06:05;;;;;;;4.67;2.73;;;;;;;;;;4989751;28;20045;-60
2024/01/22 03:08:31;;;;;;;5.53;3.13;;;;;;;;;;4996318;28;20290;-61
2024/01/22 03:10:57;;;;;;;6.30;3.20;;;;;;;;;;4988865;28;20054;-61
2024/01/22 03:13:23;;;;;;;7.30;2.90;;;;;;;;;;4991430;28;20050;-61
2024/01/22 03:15:50;;;;;;;5.50;2.70;;;;;;;;;;5000453;28;20054;-60
2024/01/22 03:18:16;;;;;;;4.70;3.08;;;;;;;;;;5000217;28;20050;-61
2024/01/22 03:20:42;;;;;;;4.72;2.72;;;;;;;;;;4999668;28;20035;-61
2024/01/22 03:23:08;;;;;;;7.22;3.22;;;;;;;;;;5001761;28;20035;-60
2024/01/22 03:25:34;;;;;;;4.55;2.72;;;;;;;;;;4993281;28;20482;-61
2024/01/22 03:28:00;;;;;;;6.15;3.30;;;;;;;;;;4992772;28;20391;-63
2024/01/22 03:30:26;;;;;;;5.47;3.13;;;;;;;;;;4992651;28;20046;-62
2024/01/22 03:32:52;;;;;;;6.50;3.47;;;;;;;;;;4994760;28;20065;-61
2024/01/22 03:35:20;;;;;;;4.72;3.10;;;;;;;;;;4992806;28;20049;-60
2024/01/22 03:37:46;;;;;;;5.57;2.65;;;;;;;;;;4993661;28;20402;-61
2024/01/22 03:40:12;;;;;;;5.88;2.92;;;;;;;;;;4991731;28;20057;-61
2024/01/22 03:42:38;;;;;;;7.63;2.80;;;;;;;;;;4994727;28;20053;-61
2024/01/22 03:45:05;;;;;;;5.70;2.78;;;;;;;;;;4995664;28;20050;-61
2024/01/22 03:47:32;;;;;;;5.93;3.28;;;;;;;;;;4993086;28;20038;-63
2024/01/22 03:49:58;;;;;;;6.05;3.08;;;;;;;;;;4994341;28;20042;-62
2024/01/22 03:52:24;;;;;;;6.68;2.72;;;;;;;;;;4996677;28;20043;-62
2024/01/22 03:54:50;;;;;;;5.70;2.88;;;;;;;;;;4992594;28;20037;-62
2024/01/22 03:57:16;;;;;;;6.43;2.72;;;;;;;;;;4994247;28;20034;-61
2024/01/22 03:59:42;;;;;;;7.30;3.40;;;;;;;;;;4997123;28;20429;-60
2024/01/22 04:02:08;;;;;;;6.65;2.92;;;;;;;;;;4992620;28;20058;-60
2024/01/22 04:04:34;;;;;;;8.15;3.33;;;;;;;;;;4997889;28;20494;-62
2024/01/22 04:07:00;;;;;;;5.75;3.22;;;;;;;;;;4997123;28;20529;-62
2024/01/22 04:09:26;;;;;;;6.95;3.17;;;;;;;;;;4991403;28;20057;-62
2024/01/22 04:11:52;;;;;;;5.80;3.67;;;;;;;;;;4992181;28;20049;-62
2024/01/22 04:14:18;;;;;;;7.43;3.20;;;;;;;;;;5007741;28;20053;-61
2024/01/22 04:16:44;;;;;;;5.60;3.17;;;;;;;;;;4997614;28;20140;-62
2024/01/22 04:19:11;;;;;;;8.30;3.20;;;;;;;;;;5001401;28;20053;-61
2024/01/22 04:21:44;;;;;;;8.57;3.60;;;;;;;;;;5007331;28;20502;-62
2024/01/22 04:24:10;;;;;;;5.43;2.97;;;;;;;;;;4993243;28;20057;-62
2024/01/22 04:26:36;;;;;;;8.00;3.70;;;;;;;;;;4992013;28;20026;-61
2024/01/22 04:29:02;;;;;;;8.00;3.75;;;;;;;;;;4991194;28;20062;-61
2024/01/22 04:31:28;;;;;;;7.55;3.30;;;;;;;;;;4992603;28;20449;-62
2024/01/22 04:33:55;;;;;;;7.88;3.42;;;;;;;;;;5000042;28;20049;-62
2024/01/22 04:36:21;;;;;;;7.00;3.17;;;;;;;;;;4993294;28;20057;-62
2024/01/22 04:38:47;;;;;;;8.68;3.80;;;;;;;;;;4992179;28;20838;-63
2024/01/22 04:41:13;;;;;;;5.53;3.30;;;;;;;;;;4993747;28;20057;-61
2024/01/22 04:43:39;;;;;;;6.35;2.97;;;;;;;;;;4992485;28;20045;-62
2024/01/22 04:46:06;;;;;;;7.25;3.42;;;;;;;;;;4995038;28;20053;-62
2024/01/22 04:48:32;;;;;;;7.60;3.50;;;;;;;;;;4995528;28;20042;-62
2024/01/22 04:50:58;;;;;;;8.18;3.20;;;;;;;;;;4990514;28;20041;-62
2024/01/22 04:53:24;;;;;;;4.97;2.95;;;;;;;;;;4996359;28;20050;-62
2024/01/22 04:55:51;;;;;;;5.32;2.95;;;;;;;;;;4990773;28;20057;-61
2024/01/22 04:58:17;;;;;;;6.93;3.30;;;;;;;;;;4991836;28;20043;-61
2024/01/22 05:00:43;;;;;;;8.15;3.63;;;;;;;;;;4996181;28;20509;-61
2024/01/22 05:03:09;;;;;;;4.70;2.80;;;;;;;;;;4996763;28;20050;-61
2024/01/22 05:05:37;;;;;;;6.20;2.97;;;;;;;;;;4996186;28;20123;-61
2024/01/22 05:08:03;;;;;;;4.35;2.67;;;;;;;;;;4997038;28;20027;-62
2024/01/22 05:10:29;;;;;;;5.47;3.17;;;;;;;;;;4990069;28;20493;-62
2024/01/22 05:12:55;;;;;;;5.78;3.13;;;;;;;;;;4991401;28;20046;-61
2024/01/22 05:15:21;;;;;;;6.38;2.80;;;;;;;;;;4997648;28;20061;-62
2024/01/22 05:17:48;;;;;;;5.13;3.08;;;;;;;;;;4993696;28;20406;-62
2024/01/22 05:20:14;;;;;;;6.40;3.00;;;;;;;;;;4990276;28;20061;-61
2024/01/22 05:22:40;;;;;;;8.20;3.40;;;;;;;;;;4998038;28;20050;-62
2024/01/22 05:25:08;;;;;;;6.93;2.90;;;;;;;;;;4989509;28;20034;-63
2024/01/22 05:27:34;;;;;;;5.03;3.20;;;;;;;;;;4990054;28;20768;-61
2024/01/22 05:30:00;;;;;;;6.57;3.28;;;;;;;;;;4990127;28;20413;-61
2024/01/22 05:32:26;;;;;;;5.95;3.30;;;;;;;;;;4989270;28;20042;-61
2024/01/22 05:34:52;;;;;;;5.57;3.50;;;;;;;;;;4998996;28;20058;-61
2024/01/22 05:37:18;;;;;;;8.60;3.70;;;;;;;;;;4994307;28;20038;-61
2024/01/22 05:39:44;;;;;;;6.65;3.00;;;;;;;;;;4992642;28;20482;-61
2024/01/22 05:42:10;;;;;;;4.97;2.80;;;;;;;;;;4988658;28;20061;-61
2024/01/22 05:44:36;;;;;;;4.93;2.80;;;;;;;;;;4991068;28;20049;-62
2024/01/22 05:47:02;;;;;;;3.83;2.70;;;;;;;;;;4995314;28;20045;-61
2024/01/22 05:49:29;;;;;;;6.57;2.70;;;;;;;;;;4988623;28;20049;-62
2024/01/22 05:51:55;;;;;;;4.20;2.05;;;;;;;;;;4990558;28;20050;-61
2024/01/22 05:54:21;;;;;;;4.93;2.47;;;;;;;;;;4989478;28;20042;-62
2024/01/22 05:56:47;;;;;;;5.40;3.00;;;;;;;;;;4997332;28;20423;-61
2024/01/22 05:59:13;;;;;;;5.38;2.30;;;;;;;;;;4987591;28;20055;-60
2024/01/22 06:01:39;;;;;;;4.43;2.70;;;;;;;;;;4996089;28;20035;-60
2024/01/22 06:04:06;;;;;;;3.90;2.47;;;;;;;;;;4990314;28;20046;-60
2024/01/22 06:06:32;;;;;;;2.72;1.95;;;;;;;;;;5001978;28;20034;-60
2024/01/22 06:08:58;;;;;;;3.63;1.85;;;;;;;;;;4999674;28;20045;-60
2024/01/22 06:11:26;;;;;;;2.53;1.50;;;;;;;;;;4990280;28;20109;-59
2024/01/22 06:13:52;;;;;;;2.50;1.50;;;;;;;;;;4988229;28;20050;-60
2024/01/22 06:16:18;;;;;;;2.35;1.42;;;;;;;;;;4990634;28;20538;-60
2024/01/22 06:18:45;;;;;;;6.95;1.38;;;;;;;;;;4990112;28;20414;-60
2024/01/22 06:21:14;;;;;;;2.05;1.38;;;;;;;;;;4988386;28;20054;-60
2024/01/22 06:23:41;;;;;;;2.83;1.40;;;;;;;;;;4991178;28;20039;-61
2024/01/22 06:26:08;;;;;;;1.42;1.10;;;;;;;;;;4990846;28;20051;-60
2024/01/22 06:28:35;;;;;;;1.92;1.67;;;;;;;;;;4998639;28;20521;-61
2024/01/22 06:31:01;;;;;;;2.42;1.20;;;;;;;;;;4990814;28;20529;-60
2024/01/22 06:33:27;;;;;;;3.00;1.48;;;;;;;;;;4989351;28;20042;-60
2024/01/22 06:35:53;;;;;;;2.55;1.63;;;;;;;;;;4992217;28;20038;-61
2024/01/22 06:38:19;;;;;;;2.47;1.38;;;;;;;;;;4990336;28;20038;-61
2024/01/22 06:40:46;;;;;;;4.00;2.28;;;;;;;;;;4990739;28;20058;-60
2024/01/22 06:43:12;;;;;;;3.50;2.25;;;;;;;;;;4990103;28;20038;-60
2024/01/22 06:45:39;;;;;;;2.75;2.13;;;;;;;;;;4992060;28;20057;-60
2024/01/22 06:48:05;;;;;;;3.78;1.98;;;;;;;;;;4989816;28;20536;-60
2024/01/22 06:50:31;;;;;;;3.28;1.85;;;;;;;;;;4992621;28;20046;-60
2024/01/22 06:52:57;;;;;;;2.90;1.83;;;;;;;;;;4995736;28;20033;-60
2024/01/22 06:55:24;;;;;;;3.80;1.55;;;;;;;;;;4995105;28;20038;-60
2024/01/22 06:57:50;;;;;;;5.65;1.77;;;;;;;;;;4996853;28;20053;-61
2024/01/22 07:00:19;;;;;;;3.97;2.00;;;;;;;;;;4999037;28;20042;-60
2024/01/22 07:02:45;;;;;;;2.63;2.13;;;;;;;;;;4997890;28;20030;-61
2024/01/22 07:05:12;;;;;;;2.47;1.75;;;;;;;;;;4993610;28;20530;-60
2024/01/22 07:07:39;;;;;;;3.38;1.60;;;;;;;;;;4996431;28;20042;-60
2024/01/22 07:10:07;;;;;;;5.43;1.70;;;;;;;;;;4992633;28;20039;-59
2024/01/22 07:12:34;;;;;;;4.13;1.93;;;;;;;;;;4997708;28;20533;-62
2024/01/22 07:15:01;;;;;;;4.43;2.20;;;;;;;;;;4989889;28;20412;-61
2024/01/22 07:17:28;;;;;;;2.33;1.30;;;;;;;;;;4999194;28;20034;-60
2024/01/22 07:19:55;;;;;;;2.30;1.42;;;;;;;;;;4992215;28;20034;-61
2024/01/22 07:22:21;;;;;;;3.88;1.77;;;;;;;;;;4998237;28;20046;-60
2024/01/22 07:24:47;;;;;;;2.00;1.17;;;;;;;;;;4996520;28;20038;-59
2024/01/22 07:27:13;;;;;;;4.88;1.90;;;;;;;;;;4988180;28;20061;-59
2024/01/22 07:29:39;;;;;;;20.52;7.95;;;;;;;;;;4999911;28;20054;-59
2024/01/22 07:32:06;;;;;;;1.63;1.10;;;;;;;;;;4996571;28;20486;-59
2024/01/22 07:34:32;;;;;;;2.85;1.02;;;;;;;;;;5003083;28;20041;-60
2024/01/22 07:36:58;;;;;;;1.77;1.10;;;;;;;;;;4998493;28;20046;-60
2024/01/22 07:39:24;;;;;;;5.57;2.38;;;;;;;;;;4993212;28;20726;-61
2024/01/22 07:41:50;;;;;;;3.50;1.38;;;;;;;;;;4994382;28;20045;-61
2024/01/22 07:44:17;;;;;;;1.73;1.20;;;;;;;;;;4997927;28;20401;-61
2024/01/22 07:46:43;;;;;;;2.00;1.02;;;;;;;;;;5005130;28;20030;-59
2024/01/22 07:49:09;;;;;;;3.35;1.63;;;;;;;;;;4998859;28;20042;-59
2024/01/22 07:51:35;;;;;;;3.40;1.75;;;;;;;;;;4998503;28;20520;-61
2024/01/22 07:54:01;;;;;;;3.08;1.15;;;;;;;;;;4996611;28;20418;-61
2024/01/22 07:56:28;;;;;;;1.60;1.20;;;;;;;;;;4994158;28;20049;-61
2024/01/22 07:58:54;;;;;;;1.73;1.20;;;;;;;;;;4994188;28;20042;-61
2024/01/22 08:01:20;;;;;;;1.75;1.10;;;;;;;;;;4997917;28;20045;-60
2024/01/22 08:03:46;;;;;;;1.60;1.00;;;;;;;;;;4998370;28;20030;-61
2024/01/22 08:06:13;;;;;;;1.08;0.77;;;;;;;;;;5001655;28;20517;-61
2024/01/22 08:08:40;;;;;;;2.33;1.10;;;;;;;;;;4993277;28;20042;-61
2024/01/22 08:11:06;;;;;;;1.52;1.10;;;;;;;;;;5004419;28;20041;-61
2024/01/22 08:13:33;;;;;;;1.63;0.80;;;;;;;;;;4999531;28;20042;-60
2024/01/22 08:16:00;;;;;;;1.25;0.85;;;;;;;;;;5004397;28;20494;-61
2024/01/22 08:18:26;;;;;;;1.00;0.80;;;;;;;;;;4995765;28;20038;-60
2024/01/22 08:20:52;;;;;;;1.02;0.85;;;;;;;;;;4996075;28;20045;-60
2024/01/22 08:23:18;;;;;;;0.95;0.70;;;;;;;;;;4997463;28;20058;-59
2024/01/22 08:25:45;;;;;;;0.80;0.60;;;;;;;;;;5001659;28;20050;-61
2024/01/22 08:28:11;;;;;;;1.05;0.77;;;;;;;;;;4995130;28;20060;-61
2024/01/22 08:30:37;;;;;;;1.33;0.70;;;;;;;;;;4996958;28;20406;-61
2024/01/22 08:33:03;;;;;;;1.35;0.80;;;;;;;;;;4994370;28;20065;-61
2024/01/22 08:35:29;;;;;;;1.15;0.60;;;;;;;;;;4996218;28;20038;-60
2024/01/22 08:37:56;;;;;;;1.40;0.80;;;;;;;;;;4995934;28;20050;-61
2024/01/22 08:40:23;;;;;;;1.17;0.88;;;;;;;;;;4995592;28;20050;-62
2024/01/22 08:42:50;;;;;;;1.35;0.90;;;;;;;;;;4999680;28;20042;-60
2024/01/22 08:45:16;;;;;;;1.35;0.93;;;;;;;;;;4996771;28;20057;-61
2024/01/22 08:47:45;;;;;;;1.10;0.90;;;;;;;;;;4997063;28;20034;-61
2024/01/22 08:50:17;;;;;;;3.58;1.10;;;;;;;;;;4997065;28;20056;-61
2024/01/22 08:52:45;;;;;;;2.97;1.00;;;;;;;;;;4996411;28;20050;-60
2024/01/22 08:55:11;;;;;;;5.93;2.33;;;;;;;;;;4993728;28;20409;-60
2024/01/22 08:57:39;;;;;;;3.85;1.73;;;;;;;;;;4998984;28;20409;-61
2024/01/22 09:00:10;;;;;;;1.50;1.00;;;;;;;;;;4999219;28;20045;-60
2024/01/22 09:02:40;;;;;;;1.42;0.93;;;;;;;;;;4998454;28;20042;-61
2024/01/22 09:05:08;;;;;;;3.05;1.60;;;;;;;;;;5001981;28;20038;-61
2024/01/22 09:07:35;;;;;;;1.40;0.90;;;;;;;;;;4998966;28;20460;-61
2024/01/22 09:10:06;;;;;;;0.88;0.70;;;;;;;;;;5005861;28;20057;-61
2024/01/22 09:12:34;;;;;;;1.15;0.80;;;;;;;;;;4994825;28;20034;-61
2024/01/22 09:15:00;;;;;;;1.02;0.50;;;;;;;;;;5004749;28;20041;-61
2024/01/22 09:17:27;;;;;;;1.80;0.90;;;;;;;;;;4991993;28;20045;-61
2024/01/22 09:19:53;;;;;;;1.92;0.75;;;;;;;;;;4995141;28;20037;-60
2024/01/22 09:22:22;;;;;;;1.23;0.75;;;;;;;;;;4996372;28;20042;-60
2024/01/22 09:24:48;;;;;;;1.13;0.60;;;;;;;;;;4998959;28;20038;-59
2024/01/22 09:27:14;;;;;;;1.30;0.73;;;;;;;;;;4998078;28;20033;-60
2024/01/22 09:29:41;;;;;;;2.00;0.90;;;;;;;;;;4996850;28;20053;-61
2024/01/22 09:32:08;;;;;;;1.98;0.70;;;;;;;;;;4992573;28;20054;-60
2024/01/22 09:34:36;;;;;;;0.98;0.63;;;;;;;;;;4993582;28;20058;-61
2024/01/22 09:37:02;;;;;;;0.80;0.57;;;;;;;;;;4995829;28;20053;-61
2024/01/22 09:39:28;;;;;;;1.52;0.77;;;;;;;;;;4991213;28;20046;-60
2024/01/22 09:41:55;;;;;;;1.25;0.80;;;;;;;;;;4993932;28;20417;-61
2024/01/22 09:44:21;;;;;;;2.33;1.20;;;;;;;;;;4993276;28;20049;-61
2024/01/22 09:46:49;;;;;;;1.15;0.95;;;;;;;;;;4998299;28;20030;-60
2024/01/22 09:49:15;;;;;;;1.88;1.10;;;;;;;;;;4997728;28;20057;-60
2024/01/22 09:51:42;;;;;;;3.78;1.35;;;;;;;;;;4999024;28;20490;-60
2024/01/22 09:54:11;;;;;;;1.23;0.70;;;;;;;;;;4994797;28;20069;-60
2024/01/22 09:56:38;;;;;;;2.00;1.17;;;;;;;;;;4998573;28;20050;-60
2024/01/22 09:59:15;;;;;;;2.72;0.90;;;;;;;;;;4994911;28;20405;-60
2024/01/22 10:01:42;;;;;;;1.73;1.02;;;;;;;;;;4999741;28;20049;-61
2024/01/22 10:04:13;;;;;;;1.60;1.10;;;;;;;;;;5001616;28;20049;-61
2024/01/22 10:06:40;;;;;;;2.00;1.25;;;;;;;;;;5005429;28;20049;-61
2024/01/22 10:09:07;;;;;;;3.65;0.90;;;;;;;;;;5002962;28;20044;-61
2024/01/22 10:11:33;;;;;;;2.25;0.85;;;;;;;;;;5003903;28;20502;-61
2024/01/22 10:13:59;;;;;;;1.52;0.90;;;;;;;;;;4998179;28;20052;-61
2024/01/22 10:16:27;;;;;;;1.33;0.90;;;;;;;;;;4995397;28;20061;-61
2024/01/22 10:19:00;;;;;;;1.52;0.70;;;;;;;;;;4994859;28;20046;-62
2024/01/22 10:21:27;;;;;;;1.15;1.05;;;;;;;;;;4996162;28;20390;-60
2024/01/22 10:24:00;;;;;;;1.75;1.02;;;;;;;;;;4996380;28;20406;-61
2024/01/22 10:26:27;;;;;;;5.72;2.30;;;;;;;;;;4995213;28;20039;-60
2024/01/22 10:28:54;;;;;;;3.25;1.73;;;;;;;;;;4995237;28;20061;-60
2024/01/22 10:31:20;;;;;;;6.18;3.15;;;;;;;;;;4996278;28;20061;-60
2024/01/22 10:33:46;;;;;;;3.33;1.90;;;;;;;;;;4996072;28;20034;-60
2024/01/22 10:36:18;;;;;;;1.58;1.30;;;;;;;;;;4995919;28;20040;-62
2024/01/22 10:38:45;;;;;;;2.42;1.38;;;;;;;;;;4996796;28;20041;-61
2024/01/22 10:41:17;;;;;;;3.25;0.90;;;;;;;;;;4998721;28;20053;-59
2024/01/22 10:43:43;;;;;;;1.73;1.40;;;;;;;;;;4995923;28;20035;-60
2024/01/22 10:46:11;;;;;;;1.58;0.80;;;;;;;;;;5000693;28;20038;-61
2024/01/22 10:48:38;;;;;;;1.17;0.77;;;;;;;;;;4999640;28;20038;-61
2024/01/22 10:51:05;;;;;;;1.65;0.90;;;;;;;;;;5006788;28;20684;-61
2024/01/22 10:53:32;;;;;;;2.45;1.00;;;;;;;;;;4998435;28;20046;-61
2024/01/22 10:56:04;;;;;;;1.63;0.80;;;;;;;;;;4999425;28;20038;-61
2024/01/22 10:58:44;;;;;;;1.58;1.02;;;;;;;;;;4987668;28;20421;-61
2024/01/22 11:01:17;;;;;;;3.75;1.08;;;;;;;;;;4994735;28;20033;-62
2024/01/22 11:03:46;;;;;;;3.45;2.20;;;;;;;;;;4994123;28;20053;-61
2024/01/22 11:06:18;;;;;;;2.50;1.17;;;;;;;;;;5006847;28;20050;-60
2024/01/22 11:08:49;;;;;;;1.55;1.23;;;;;;;;;;5007179;28;20041;-61
2024/01/22 11:11:19;;;;;;;1.25;0.90;;;;;;;;;;5003959;28;20046;-61
2024/01/22 11:13:51;;;;;;;1.50;0.80;;;;;;;;;;5000767;28;20034;-60
2024/01/22 11:16:20;;;;;;;0.90;0.70;;;;;;;;;;4998130;28;20045;-61
2024/01/22 11:19:20;;;;;;;1.33;1.00;;;;;;;;;;4992240;28;20041;-61
2024/01/22 11:21:47;;;;;;;1.30;0.80;;;;;;;;;;4994610;28;20042;-60
2024/01/22 11:24:13;;;;;;;1.08;0.75;;;;;;;;;;4999172;28;20054;-62
2024/01/22 11:26:51;;;;;;;1.55;0.80;;;;;;;;;;5001991;28;20045;-61
2024/01/22 11:29:29;;;;;;;1.52;0.98;;;;;;;;;;4992980;28;20034;-61
2024/01/22 11:31:56;;;;;;;2.38;0.75;;;;;;;;;;4995014;28;20402;-60
2024/01/22 11:34:40;;;;;;;2.22;1.10;;;;;;;;;;4995144;28;20049;-61
2024/01/22 11:37:08;;;;;;;1.42;0.80;;;;;;;;;;4997659;28;20050;-60
2024/01/22 11:39:42;;;;;;;0.50;0.50;;;;;;;;;;4996174;28;20034;-60
2024/01/22 11:42:25;;;;;;;0.88;0.70;;;;;;;;;;4995302;28;20506;-60
2024/01/22 11:44:52;;;;;;;1.85;0.93;;;;;;;;;;5001628;28;20037;-61
2024/01/22 11:47:19;;;;;;;1.52;1.13;;;;;;;;;;5015507;28;20417;-61
2024/01/22 11:49:46;;;;;;;1.55;0.65;;;;;;;;;;4996043;28;20043;-61
2024/01/22 11:52:20;;;;;;;3.67;1.50;;;;;;;;;;5001337;28;20525;-61
2024/01/22 11:54:58;;;;;;;2.47;1.23;;;;;;;;;;5003888;28;20417;-62
2024/01/22 11:57:26;;;;;;;2.20;1.30;;;;;;;;;;4995946;28;20049;-61
2024/01/22 12:00:11;;;;;;;1.60;0.88;;;;;;;;;;4997057;28;20042;-62
2024/01/22 12:02:44;;;;;;;1.40;0.90;;;;;;;;;;5006795;28;20038;-60
2024/01/22 12:05:14;;;;;;;2.00;0.88;;;;;;;;;;5000916;28;20045;-61
2024/01/22 12:07:45;;;;;;;2.22;1.10;;;;;;;;;;5005865;28;20046;-62
2024/01/22 12:10:20;;;;;;;1.80;1.42;;;;;;;;;;5002410;28;20038;-61
2024/01/22 12:12:50;;;;;;;1.00;0.80;;;;;;;;;;4999037;28;20069;-61
2024/01/22 12:15:16;;;;;;;3.58;1.10;;;;;;;;;;4995553;28;20407;-61
2024/01/22 12:17:43;;;;;;;1.13;1.00;;;;;;;;;;5001101;28;20038;-62
2024/01/22 12:20:10;;;;;;;2.63;1.60;;;;;;;;;;4997067;28;20064;-61
2024/01/22 12:22:36;;;;;;;2.20;0.95;;;;;;;;;;4996409;28;20026;-61
2024/01/22 12:25:12;;;;;;;3.25;1.50;;;;;;;;;;4998501;28;20038;-61
2024/01/22 12:27:38;;;;;;;2.83;1.30;;;;;;;;;;4991487;28;20521;-61
2024/01/22 12:30:08;;;;;;;1.75;1.13;;;;;;;;;;4995686;28;20046;-61
2024/01/22 12:32:37;;;;;;;1.92;1.00;;;;;;;;;;4988861;28;20042;-62
2024/01/22 12:35:05;;;;;;;4.18;2.80;;;;;;;;;;4995677;28;20065;-59
2024/01/22 12:37:34;;;;;;;4.43;2.72;;;;;;;;;;4993149;28;20045;-61
2024/01/22 12:40:17;;;;;;;4.50;1.90;;;;;;;;;;4997147;28;20038;-60
2024/01/22 12:42:44;;;;;;;1.92;1.13;;;;;;;;;;4993549;28;20293;-60
2024/01/22 12:45:13;;;;;;;0.75;0.70;;;;;;;;;;4999639;28;20042;-61
2024/01/22 12:47:40;;;;;;;0.70;0.50;;;;;;;;;;4997785;28;20411;-61
2024/01/22 12:50:08;;;;;;;1.30;0.60;;;;;;;;;;5000188;28;20038;-61
2024/01/22 12:52:35;;;;;;;2.08;1.20;;;;;;;;;;4995995;28;20053;-61
2024/01/22 12:55:01;;;;;;;0.70;0.70;;;;;;;;;;5002828;28;20045;-63
2024/01/22 12:57:28;;;;;;;2.83;1.08;;;;;;;;;;4997368;28;20034;-61
2024/01/22 12:59:54;;;;;;;3.88;1.10;;;;;;;;;;5001509;28;20042;-60
2024/01/22 13:02:21;;;;;;;1.85;1.40;;;;;;;;;;4997459;28;20034;-62
2024/01/22 13:04:48;;;;;;;1.73;1.05;;;;;;;;;;5016669;28;20053;-62
2024/01/22 13:07:14;;;;;;;3.88;1.33;;;;;;;;;;5000650;28;20048;-63
2024/01/22 13:09:40;;;;;;;2.80;0.65;;;;;;;;;;5003782;28;20041;-63
2024/01/22 13:12:08;;;;;;;1.10;0.80;;;;;;;;;;4995766;28;20049;-63
2024/01/22 13:14:35;;;;;;;1.55;0.50;;;;;;;;;;4997831;28;20041;-63
2024/01/22 13:17:04;;;;;;;1.92;1.13;;;;;;;;;;4995349;28;20049;-63
2024/01/22 13:19:36;;;;;;;3.35;1.80;;;;;;;;;;4996474;28;20050;-64
2024/01/22 13:22:02;;;;;;;1.17;0.88;;;;;;;;;;4992224;28;20046;-63
2024/01/22 13:24:29;;;;;;;1.25;0.50;;;;;;;;;;4997756;28;20045;-62
2024/01/22 13:27:00;;;;;;;3.13;1.20;;;;;;;;;;4995574;28;20045;-62
2024/01/22 13:29:28;;;;;;;2.13;1.20;;;;;;;;;;4989612;28;20034;-62
2024/01/22 13:31:55;;;;;;;1.55;0.90;;;;;;;;;;4993731;28;20042;-62
2024/01/22 13:34:23;;;;;;;2.15;0.75;;;;;;;;;;4994385;28;20505;-62
2024/01/22 13:36:50;;;;;;;1.05;0.63;;;;;;;;;;4995744;28;20057;-62
2024/01/22 13:39:18;;;;;;;2.80;0.68;;;;;;;;;;4998147;28;20097;-61
2024/01/22 13:41:44;;;;;;;2.28;0.60;;;;;;;;;;4991943;28;20042;-63
2024/01/22 13:44:11;;;;;;;0.55;0.50;;;;;;;;;;4991108;28;20064;-61
2024/01/22 13:46:37;;;;;;;0.70;0.50;;;;;;;;;;4997212;28;20039;-61
2024/01/22 13:49:05;;;;;;;1.23;0.50;;;;;;;;;;4991612;28;20045;-62
2024/01/22 13:51:32;;;;;;;1.10;0.60;;;;;;;;;;4996528;28;20042;-62
2024/01/22 13:53:58;;;;;;;0.30;0.30;;;;;;;;;;4987267;28;20049;-61
2024/01/22 13:56:25;;;;;;;0.50;0.50;;;;;;;;;;4991151;28;20434;-60
2024/01/22 13:58:51;;;;;;;0.90;0.60;;;;;;;;;;4991691;28;20069;-61
2024/01/22 14:01:18;;;;;;;0.90;0.63;;;;;;;;;;4989792;28;20046;-63
2024/01/22 14:03:44;;;;;;;0.82;0.43;;;;;;;;;;4990594;28;20421;-62
2024/01/22 14:06:10;;;;;;;0.40;0.40;;;;;;;;;;4997714;28;20054;-62
2024/01/22 14:08:36;;;;;;;0.95;0.60;;;;;;;;;;5001450;28;20030;-62
2024/01/22 14:11:04;;;;;;;1.00;0.20;;;;;;;;;;4992865;28;20058;-62
2024/01/22 14:13:30;;;;;;;1.17;0.57;;;;;;;;;;4985069;28;20050;-61
2024/01/22 14:15:56;;;;;;;0.38;0.38;;;;;;;;;;4989994;28;20045;-61
2024/01/22 14:18:24;;;;;;;0.30;0.30;;;;;;;;;;4994806;28;20433;-62
2024/01/22 14:20:50;;;;;;;0.30;0.30;;;;;;;;;;4989573;28;20046;-62
2024/01/22 14:23:17;;;;;;;0.70;0.70;;;;;;;;;;4988765;28;20497;-61
2024/01/22 14:25:43;;;;;;;0.50;0.40;;;;;;;;;;4991394;28;20072;-61
2024/01/22 14:28:09;;;;;;;0.60;0.45;;;;;;;;;;4994466;28;20049;-62
2024/01/22 14:30:35;;;;;;;1.10;0.60;;;;;;;;;;4989361;28;20037;-61
2024/01/22 14:33:01;;;;;;;0.63;0.50;;;;;;;;;;4993105;28;20390;-61
2024/01/22 14:35:27;;;;;;;1.15;0.60;;;;;;;;;;4990211;28;20054;-61
2024/01/22 14:37:54;;;;;;;0.85;0.50;;;;;;;;;;4996417;28;20498;-61
2024/01/22 14:40:20;;;;;;;6.40;2.60;;;;;;;;;;4993799;28;20049;-62
2024/01/22 14:42:46;;;;;;;0.82;0.60;;;;;;;;;;4994624;28;20034;-63